createdAt,value
2022-10-04T00:00:38.698Z,102091.13
2022-10-04T00:03:18.081Z,102084.28
2022-10-04T00:05:50.809Z,102081.69
2022-10-04T00:08:55.518Z,102079.91
2022-10-04T00:11:28.023Z,102088.81
2022-10-04T00:14:01.314Z,102087.16
2022-10-04T00:16:39.586Z,102088.66
2022-10-04T00:19:15.215Z,102090.59
2022-10-04T00:21:57.065Z,102086.22
2022-10-04T00:24:32.438Z,102081.97
2022-10-04T00:27:11.121Z,102080.19
2022-10-04T00:29:42.277Z,102075.13
2022-10-04T00:32:11.824Z,102083.75
2022-10-04T00:34:48.082Z,102075.13
2022-10-04T00:37:19.590Z,102070.06
2022-10-04T00:39:55.754Z,102076.09
2022-10-04T00:42:31.392Z,102064.19
2022-10-04T00:45:11.841Z,102065.97
2022-10-04T00:47:38.296Z,102058.03
2022-10-04T00:50:17.047Z,102054.75
2022-10-04T00:52:51.810Z,102053.13
2022-10-04T00:55:55.473Z,102055.72
2022-10-04T00:58:36.312Z,102048.88
2022-10-04T01:01:04.728Z,102048.19
2022-10-04T01:03:38.269Z,102050.00
2022-10-04T01:06:09.233Z,102043.97
2022-10-04T01:08:40.923Z,102037.94
2022-10-04T01:11:15.514Z,102035.34
2022-10-04T01:13:47.990Z,102028.34
2022-10-04T01:16:17.878Z,102024.78
2022-10-04T01:18:44.962Z,102024.66
2022-10-04T01:21:20.682Z,102015.34
2022-10-04T01:23:52.830Z,102016.16
2022-10-04T01:26:34.711Z,102011.75
2022-10-04T01:29:09.234Z,102016.00
2022-10-04T01:31:39.247Z,102018.63
2022-10-04T01:34:07.657Z,102009.03
2022-10-04T01:36:36.209Z,102007.25
2022-10-04T01:39:04.151Z,102004.50
2022-10-04T01:41:56.193Z,102005.31
2022-10-04T01:44:49.803Z,101994.91
2022-10-04T01:47:27.877Z,101991.50
2022-10-04T01:49:57.858Z,101986.28
2022-10-04T01:52:48.529Z,101993.25
2022-10-04T01:55:20.321Z,101986.56
2022-10-04T01:57:52.910Z,101989.16
2022-10-04T02:00:22.305Z,101990.00
2022-10-04T02:02:57.750Z,101982.19
2022-10-04T02:05:47.750Z,101980.41
2022-10-04T02:08:16.695Z,101983.97
2022-10-04T02:10:45.464Z,101984.13
2022-10-04T02:13:18.130Z,101987.69
2022-10-04T02:15:47.160Z,101986.84
2022-10-04T02:18:19.124Z,101975.66
2022-10-04T02:20:48.578Z,101969.63
2022-10-04T02:23:18.433Z,101978.38
2022-10-04T02:25:45.018Z,101968.97
2022-10-04T02:28:14.070Z,101961.44
2022-10-04T02:30:44.358Z,101953.91
2022-10-04T02:33:11.478Z,101956.84
2022-10-04T02:35:47.347Z,101942.19
2022-10-04T02:38:22.311Z,101937.56
2022-10-04T02:41:03.767Z,101938.03
2022-10-04T02:43:42.304Z,101945.28
2022-10-04T02:46:36.013Z,101942.00
2022-10-04T02:49:10.795Z,101947.50
2022-10-04T02:51:37.206Z,101950.25
2022-10-04T02:54:28.336Z,101948.75
2022-10-04T02:56:56.738Z,101944.66
2022-10-04T02:59:23.863Z,101941.56
2022-10-04T03:01:53.532Z,101931.44
2022-10-04T03:04:29.133Z,101927.78
2022-10-04T03:06:57.643Z,101928.06
2022-10-04T03:09:29.724Z,101928.63
2022-10-04T03:11:57.233Z,101924.84
2022-10-04T03:14:26.684Z,101923.47
2022-10-04T03:16:56.000Z,101922.13
2022-10-04T03:19:26.917Z,101917.34
2022-10-04T03:21:56.833Z,101917.63
2022-10-04T03:24:36.218Z,101926.53
2022-10-04T03:27:07.419Z,101922.59
2022-10-04T03:29:39.439Z,101924.66
2022-10-04T03:32:06.002Z,101915.22
2022-10-04T03:34:38.752Z,101909.34
2022-10-04T03:37:14.796Z,101918.91
2022-10-04T03:39:51.104Z,101919.06
2022-10-04T03:42:30.133Z,101915.94
2022-10-04T03:45:09.405Z,101903.09
2022-10-04T03:47:40.521Z,101896.56
2022-10-04T03:50:21.469Z,101896.84
2022-10-04T03:52:58.430Z,101881.69
2022-10-04T03:55:33.608Z,101889.63
2022-10-04T03:58:01.267Z,101886.34
2022-10-04T04:00:30.345Z,101880.34
2022-10-04T04:03:00.379Z,101874.47
2022-10-04T04:05:45.187Z,101877.19
2022-10-04T04:08:33.986Z,101875.84
2022-10-04T04:11:04.502Z,101875.16
2022-10-04T04:13:46.164Z,101875.44
2022-10-04T04:16:14.887Z,101886.91
2022-10-04T04:18:44.302Z,101875.06
2022-10-04T04:21:18.685Z,101881.47
2022-10-04T04:23:50.907Z,101869.59
2022-10-04T04:26:27.337Z,101870.03
2022-10-04T04:29:07.762Z,101865.13
2022-10-04T04:31:37.251Z,101863.63
2022-10-04T04:34:15.315Z,101865.56
2022-10-04T04:36:42.149Z,101854.78
2022-10-04T04:39:40.988Z,101863.50
2022-10-04T04:42:15.025Z,101869.00
2022-10-04T04:44:48.052Z,101871.84
2022-10-04T04:47:50.484Z,101872.00
2022-10-04T04:50:19.962Z,101864.63
2022-10-04T04:52:52.106Z,101862.16
2022-10-04T04:55:25.309Z,101861.75
2022-10-04T04:57:56.116Z,101866.41
2022-10-04T05:00:28.805Z,101858.78
2022-10-04T05:02:58.970Z,101856.44
2022-10-04T05:05:31.130Z,101860.13
2022-10-04T05:08:10.634Z,101849.09
2022-10-04T05:10:42.382Z,101858.78
2022-10-04T05:13:11.232Z,101849.63
2022-10-04T05:15:40.586Z,101857.53
2022-10-04T05:18:30.782Z,101863.00
2022-10-04T05:21:06.975Z,101857.03
2022-10-04T05:23:34.823Z,101856.19
2022-10-04T05:26:04.732Z,101853.59
2022-10-04T05:28:33.047Z,101854.69
2022-10-04T05:31:25.002Z,101860.03
2022-10-04T05:33:55.290Z,101860.97
2022-10-04T05:36:30.937Z,101864.47
2022-10-04T05:39:27.189Z,101875.13
2022-10-04T05:42:21.239Z,101870.88
2022-10-04T05:44:58.295Z,101872.66
2022-10-04T05:47:30.891Z,101858.91
2022-10-04T05:50:01.035Z,101870.22
2022-10-04T05:52:36.764Z,101859.00
2022-10-04T05:55:13.017Z,101862.56
2022-10-04T05:58:06.195Z,101862.44
2022-10-04T06:00:56.643Z,101856.41
2022-10-04T06:03:48.303Z,101851.78
2022-10-04T06:06:26.781Z,101863.00
2022-10-04T06:09:24.225Z,101872.25
2022-10-04T06:12:02.205Z,101864.38
2022-10-04T06:15:04.146Z,101861.53
2022-10-04T06:17:52.573Z,101865.31
2022-10-04T06:20:28.009Z,101858.09
2022-10-04T06:23:00.840Z,101861.91
2022-10-04T06:25:38.746Z,101863.97
2022-10-04T06:28:23.274Z,101864.34
2022-10-04T06:31:16.148Z,101868.31
2022-10-04T06:34:07.086Z,101860.81
2022-10-04T06:37:00.706Z,101868.16
2022-10-04T06:39:35.854Z,101871.84
2022-10-04T06:42:13.836Z,101872.78
2022-10-04T06:44:58.479Z,101870.41
2022-10-04T06:48:14.522Z,101866.09
2022-10-04T06:50:54.944Z,101873.94
2022-10-04T06:53:39.555Z,101870.59
2022-10-04T06:56:12.204Z,101867.28
2022-10-04T06:59:17.353Z,101867.66
2022-10-04T07:02:00.464Z,101873.91
2022-10-04T07:07:39.332Z,101880.09
2022-10-04T07:10:08.693Z,101876.78
2022-10-04T07:12:40.901Z,101879.59
2022-10-04T07:15:19.763Z,101885.69
2022-10-04T07:17:50.275Z,101876.66
2022-10-04T07:20:25.482Z,101876.66
2022-10-04T07:23:02.835Z,101870.09
2022-10-04T07:25:55.976Z,101874.63
2022-10-04T07:29:02.270Z,101875.22
2022-10-04T07:31:34.511Z,101877.44
2022-10-04T07:34:11.935Z,101876.13
2022-10-04T07:36:59.519Z,101878.72
2022-10-04T07:39:47.881Z,101867.34
2022-10-04T07:42:24.732Z,101877.72
2022-10-04T07:45:26.821Z,101869.81
2022-10-04T07:48:05.314Z,101877.44
2022-10-04T07:51:09.541Z,101877.00
2022-10-04T07:54:03.126Z,101866.97
2022-10-04T07:56:45.835Z,101862.81
2022-10-04T07:59:49.750Z,101862.88
2022-10-04T08:02:31.029Z,101859.81
2022-10-04T08:05:22.685Z,101859.91
2022-10-04T08:08:20.575Z,101854.91
2022-10-04T08:10:57.269Z,101856.75
2022-10-04T08:13:46.002Z,101857.13
2022-10-04T08:16:38.293Z,101856.06
2022-10-04T08:19:36.070Z,101858.09
2022-10-04T08:22:05.690Z,101847.59
2022-10-04T08:25:01.188Z,101853.94
2022-10-04T08:27:40.208Z,101855.94
2022-10-04T08:30:16.787Z,101851.94
2022-10-04T08:32:54.821Z,101858.56
2022-10-04T08:35:28.084Z,101858.75
2022-10-04T08:38:25.494Z,101851.28
2022-10-04T08:40:52.171Z,101850.63
2022-10-04T08:43:25.687Z,101841.22
2022-10-04T08:46:09.768Z,101841.56
2022-10-04T08:49:09.054Z,101845.19
2022-10-04T08:51:54.236Z,101841.75
2022-10-04T08:54:40.337Z,101840.16
2022-10-04T08:57:31.363Z,101844.72
2022-10-04T09:00:19.339Z,101832.31
2022-10-04T09:03:13.636Z,101832.31
2022-10-04T09:06:01.695Z,101839.00
2022-10-04T09:08:58.711Z,101838.22
2022-10-04T09:11:44.471Z,101838.69
2022-10-04T09:14:31.307Z,101841.81
2022-10-04T09:17:36.675Z,101842.28
2022-10-04T09:20:47.368Z,101832.34
2022-10-04T09:23:32.157Z,101830.72
2022-10-04T09:26:20.791Z,101828.44
2022-10-04T09:29:18.007Z,101823.19
2022-10-04T09:31:56.676Z,101820.72
2022-10-04T09:35:16.484Z,101817.91
2022-10-04T09:38:02.660Z,101812.66
2022-10-04T09:40:50.788Z,101817.03
2022-10-04T09:43:44.789Z,101810.78
2022-10-04T09:46:16.291Z,101816.16
2022-10-04T09:49:09.224Z,101818.91
2022-10-04T09:52:05.795Z,101817.19
2022-10-04T09:54:56.803Z,101818.59
2022-10-04T09:57:39.942Z,101818.91
2022-10-04T10:00:10.813Z,101828.47
2022-10-04T10:02:57.172Z,101819.94
2022-10-04T10:06:01.803Z,101813.56
2022-10-04T10:08:47.252Z,101813.03
2022-10-04T10:11:51.491Z,101815.28
2022-10-04T10:14:29.496Z,101816.22
2022-10-04T10:17:17.684Z,101810.94
2022-10-04T10:20:19.898Z,101826.94
2022-10-04T10:23:02.742Z,101815.13
2022-10-04T10:26:16.333Z,101810.63
2022-10-04T10:29:30.959Z,101812.16
2022-10-04T10:32:20.850Z,101816.53
2022-10-04T10:34:58.844Z,101808.41
2022-10-04T10:37:48.104Z,101809.00
2022-10-04T10:40:29.104Z,101803.84
2022-10-04T10:43:01.630Z,101805.94
2022-10-04T10:45:35.042Z,101805.47
2022-10-04T10:48:41.813Z,101807.63
2022-10-04T10:51:20.617Z,101802.53
2022-10-04T10:54:12.100Z,101792.72
2022-10-04T10:56:50.603Z,101794.03
2022-10-04T10:59:59.900Z,101789.06
2022-10-04T11:03:12.228Z,101779.84
2022-10-04T11:06:15.073Z,101779.28
2022-10-04T11:09:06.679Z,101773.16
2022-10-04T11:12:11.955Z,101768.97
2022-10-04T11:15:04.141Z,101764.75
2022-10-04T11:17:40.108Z,101767.53
2022-10-04T11:20:31.642Z,101769.44
2022-10-04T11:23:30.394Z,101772.94
2022-10-04T11:26:05.931Z,101770.56
2022-10-04T11:29:10.377Z,101765.97
2022-10-04T11:31:59.854Z,101765.59
2022-10-04T11:34:44.861Z,101757.00
2022-10-04T11:37:33.246Z,101746.31
2022-10-04T11:40:16.196Z,101742.88
2022-10-04T11:43:11.310Z,101742.72
2022-10-04T11:46:11.166Z,101737.28
2022-10-04T11:48:54.330Z,101736.25
2022-10-04T11:51:30.083Z,101746.03
2022-10-04T11:54:03.580Z,101737.75
2022-10-04T11:56:35.935Z,101729.91
2022-10-04T11:59:25.259Z,101717.53
2022-10-04T12:02:16.357Z,101718.78
2022-10-04T12:04:57.894Z,101720.84
2022-10-04T12:07:45.151Z,101707.72
2022-10-04T12:10:11.717Z,101709.19
2022-10-04T12:12:59.018Z,101705.56
2022-10-04T12:15:59.229Z,101697.25
2022-10-04T12:18:59.967Z,101690.03
2022-10-04T12:21:45.149Z,101689.81
2022-10-04T12:24:33.417Z,101698.13
2022-10-04T12:27:15.204Z,101695.34
2022-10-04T12:29:57.000Z,101696.94
2022-10-04T12:32:30.388Z,101704.19
2022-10-04T12:35:12.043Z,101701.94
2022-10-04T12:38:08.284Z,101689.47
2022-10-04T12:40:43.529Z,101685.81
2022-10-04T12:43:44.746Z,101692.50
2022-10-04T12:46:11.457Z,101692.56
2022-10-04T12:48:44.335Z,101675.25
2022-10-04T12:51:13.517Z,101677.50
2022-10-04T12:53:49.307Z,101674.09
2022-10-04T12:56:37.235Z,101685.00
2022-10-04T12:59:13.461Z,101682.84
2022-10-04T13:01:52.459Z,101669.31
2022-10-04T13:04:41.236Z,101664.69
2022-10-04T13:07:46.611Z,101660.25
2022-10-04T13:10:24.543Z,101659.91
2022-10-04T13:13:23.510Z,101655.00
2022-10-04T13:19:09.698Z,101651.97
2022-10-04T13:21:36.419Z,101650.34
2022-10-04T13:24:18.247Z,101648.34
2022-10-04T13:26:54.597Z,101640.22
2022-10-04T13:29:55.057Z,101649.84
2022-10-04T13:32:29.507Z,101640.28
2022-10-04T13:35:13.815Z,101633.00
2022-10-04T13:38:03.912Z,101638.25
2022-10-04T13:40:38.821Z,101638.66
2022-10-04T13:43:31.489Z,101641.34
2022-10-04T13:46:26.172Z,101636.16
2022-10-04T13:49:01.351Z,101632.59
2022-10-04T13:51:43.930Z,101637.72
2022-10-04T13:54:40.686Z,101627.25
2022-10-04T13:57:20.419Z,101625.69
2022-10-04T14:00:00.794Z,101627.53
2022-10-04T14:03:13.738Z,101624.53
2022-10-04T14:06:12.069Z,101622.91
2022-10-04T14:09:19.285Z,101620.75
2022-10-04T14:12:13.082Z,101612.44
2022-10-04T14:15:09.227Z,101602.75
2022-10-04T14:18:04.521Z,101588.81
2022-10-04T14:21:18.171Z,101590.81
2022-10-04T14:24:07.419Z,101587.59
2022-10-04T14:27:01.743Z,101581.13
2022-10-04T14:29:53.969Z,101571.38
2022-10-04T14:32:35.928Z,101577.41
2022-10-04T14:35:11.805Z,101576.19
2022-10-04T14:38:06.571Z,101577.38
2022-10-04T14:41:10.323Z,101583.00
2022-10-04T14:43:42.989Z,101582.38
2022-10-04T14:46:38.698Z,101575.72
2022-10-04T14:49:30.787Z,101567.22
2022-10-04T14:52:16.845Z,101565.22
2022-10-04T14:54:53.168Z,101561.59
2022-10-04T14:57:42.355Z,101561.59
2022-10-04T15:00:23.826Z,101570.28
2022-10-04T15:03:20.367Z,101583.59
2022-10-04T15:05:53.149Z,101588.41
2022-10-04T15:08:25.201Z,101594.66
2022-10-04T15:11:06.809Z,101591.41
2022-10-04T15:14:02.167Z,101589.38
2022-10-04T15:16:48.428Z,101591.94
2022-10-04T15:19:21.409Z,101587.06
2022-10-04T15:22:02.677Z,101585.44
2022-10-04T15:24:51.160Z,101594.69
2022-10-04T15:27:35.810Z,101591.84
2022-10-04T15:30:21.192Z,101583.97
2022-10-04T15:32:53.955Z,101586.97
2022-10-04T15:35:54.992Z,101586.72
2022-10-04T15:38:37.017Z,101584.88
2022-10-04T15:41:27.311Z,101594.28
2022-10-04T15:44:35.414Z,101588.19
2022-10-04T15:47:08.184Z,101584.50
2022-10-04T15:50:05.075Z,101575.94
2022-10-04T15:52:44.487Z,101574.72
2022-10-04T15:55:21.379Z,101580.50
2022-10-04T15:57:47.841Z,101574.03
2022-10-04T16:00:27.059Z,101571.78
2022-10-04T16:03:09.227Z,101568.75
2022-10-04T16:05:46.089Z,101568.28
2022-10-04T16:08:18.540Z,101575.53
2022-10-04T16:11:03.427Z,101575.25
2022-10-04T16:13:43.280Z,101585.75
2022-10-04T16:16:17.715Z,101579.25
2022-10-04T16:18:47.077Z,101570.78
2022-10-04T16:21:44.413Z,101584.44
2022-10-04T16:24:20.064Z,101578.91
2022-10-04T16:26:56.211Z,101578.47
2022-10-04T16:29:31.535Z,101580.84
2022-10-04T16:32:27.451Z,101573.69
2022-10-04T16:35:03.338Z,101563.16
2022-10-04T16:37:35.880Z,101566.50
2022-10-04T16:40:40.223Z,101568.25
2022-10-04T16:43:25.175Z,101565.91
2022-10-04T16:46:25.970Z,101571.25
2022-10-04T16:48:57.581Z,101572.78
2022-10-04T16:51:44.321Z,101574.50
2022-10-04T16:54:31.103Z,101575.38
2022-10-04T16:56:58.023Z,101573.69
2022-10-04T16:59:36.955Z,101570.97
2022-10-04T17:02:03.553Z,101576.72
2022-10-04T17:04:36.158Z,101572.41
2022-10-04T17:07:51.035Z,101588.78
2022-10-04T17:10:55.992Z,101582.00
2022-10-04T17:13:28.398Z,101576.66
2022-10-04T17:16:07.758Z,101572.94
2022-10-04T17:18:56.796Z,101571.03
2022-10-04T17:22:01.551Z,101581.22
2022-10-04T17:25:16.579Z,101583.38
2022-10-04T17:27:51.802Z,101576.06
2022-10-04T17:30:22.331Z,101581.81
2022-10-04T17:33:07.868Z,101590.34
2022-10-04T17:35:55.951Z,101585.63
2022-10-04T17:38:30.808Z,101594.00
2022-10-04T17:41:05.229Z,101595.34
2022-10-04T17:43:41.488Z,101600.28
2022-10-04T17:46:26.490Z,101596.38
2022-10-04T17:49:21.578Z,101595.09
2022-10-04T17:52:11.713Z,101586.97
2022-10-04T17:54:59.053Z,101594.50
2022-10-04T17:57:39.946Z,101603.50
2022-10-04T18:00:09.332Z,101597.00
2022-10-04T18:02:39.500Z,101592.94
2022-10-04T18:05:24.935Z,101588.69
2022-10-04T18:08:36.971Z,101574.00
2022-10-04T18:11:21.077Z,101565.38
2022-10-04T18:14:02.717Z,101574.00
2022-10-04T18:16:58.035Z,101578.41
2022-10-04T18:20:04.980Z,101584.78
2022-10-04T18:22:46.649Z,101596.88
2022-10-04T18:25:30.550Z,101601.47
2022-10-04T18:28:06.472Z,101605.03
2022-10-04T18:30:35.235Z,101602.63
2022-10-04T18:33:05.327Z,101599.50
2022-10-04T18:35:35.035Z,101597.72
2022-10-04T18:38:04.609Z,101600.16
2022-10-04T18:40:40.412Z,101592.81
2022-10-04T18:43:35.410Z,101589.69
2022-10-04T18:46:05.611Z,101580.34
2022-10-04T18:48:53.897Z,101585.41
2022-10-04T18:51:58.463Z,101585.22
2022-10-04T18:55:00.321Z,101574.78
2022-10-04T18:57:33.813Z,101572.53
2022-10-04T19:00:29.507Z,101570.41
2022-10-04T19:03:31.844Z,101566.69
2022-10-04T19:06:05.856Z,101568.19
2022-10-04T19:09:10.630Z,101572.94
2022-10-04T19:11:42.903Z,101585.66
2022-10-04T19:14:26.218Z,101593.19
2022-10-04T19:17:01.614Z,101596.31
2022-10-04T19:20:03.339Z,101595.03
2022-10-04T19:22:57.868Z,101599.94
2022-10-04T19:26:10.051Z,101593.25
2022-10-04T19:28:37.681Z,101593.25
2022-10-04T19:31:16.210Z,101587.06
2022-10-04T19:34:34.175Z,101579.06
2022-10-04T19:37:17.582Z,101566.00
2022-10-04T19:39:55.172Z,101575.63
2022-10-04T19:42:51.037Z,101571.56
2022-10-04T19:45:33.408Z,101566.69
2022-10-04T19:48:20.728Z,101568.50
2022-10-04T19:51:13.175Z,101566.84
2022-10-04T19:53:45.241Z,101558.56
2022-10-04T19:56:17.528Z,101553.53
2022-10-04T19:58:58.489Z,101550.25
2022-10-04T20:01:26.168Z,101541.78
2022-10-04T20:04:11.837Z,101541.97
2022-10-04T20:06:55.574Z,101539.69
2022-10-04T20:09:31.854Z,101532.84
2022-10-04T20:11:58.555Z,101532.22
2022-10-04T20:14:28.129Z,101520.97
2022-10-04T20:16:56.110Z,101511.50
2022-10-04T20:19:28.545Z,101512.50
2022-10-04T20:22:04.227Z,101510.66
2022-10-04T20:24:36.792Z,101522.28
2022-10-04T20:27:06.799Z,101529.28
2022-10-04T20:29:36.511Z,101528.47
2022-10-04T20:32:08.337Z,101535.47
2022-10-04T20:34:47.576Z,101537.25
2022-10-04T20:37:16.495Z,101534.50
2022-10-04T20:39:46.025Z,101544.75
2022-10-04T20:42:25.196Z,101545.41
2022-10-04T20:45:02.300Z,101545.72
2022-10-04T20:47:34.673Z,101542.25
2022-10-04T20:50:02.886Z,101541.56
2022-10-04T20:52:32.303Z,101538.47
2022-10-04T20:55:03.066Z,101539.72
2022-10-04T20:57:30.460Z,101528.78
2022-10-04T20:59:58.712Z,101517.69
2022-10-04T21:02:28.415Z,101511.75
2022-10-04T21:05:11.239Z,101510.47
2022-10-04T21:07:37.869Z,101522.50
2022-10-04T21:10:20.088Z,101514.78
2022-10-04T21:12:49.043Z,101521.28
2022-10-04T21:15:21.364Z,101530.38
2022-10-04T21:18:06.503Z,101530.88
2022-10-04T21:20:51.821Z,101525.91
2022-10-04T21:23:30.003Z,101524.94
2022-10-04T21:26:24.890Z,101529.00
2022-10-04T21:29:01.596Z,101530.63
2022-10-04T21:31:28.312Z,101531.28
2022-10-04T21:33:54.892Z,101528.66
2022-10-04T21:36:21.464Z,101537.13
2022-10-04T21:38:48.037Z,101537.13
2022-10-04T21:41:14.594Z,101534.31
2022-10-04T21:43:41.106Z,101531.38
2022-10-04T21:46:07.813Z,101526.78
2022-10-04T21:48:34.395Z,101533.63
2022-10-04T21:51:01.106Z,101529.69
2022-10-04T21:53:27.610Z,101531.31
2022-10-04T21:55:54.339Z,101534.91
2022-10-04T21:58:21.316Z,101532.47
2022-10-04T22:00:48.007Z,101542.91
2022-10-04T22:03:14.543Z,101536.91
2022-10-04T22:05:41.033Z,101538.50
2022-10-04T22:08:07.792Z,101537.53
2022-10-04T22:10:34.351Z,101540.16
2022-10-04T22:13:00.934Z,101530.50
2022-10-04T22:15:28.306Z,101531.31
2022-10-04T22:17:55.528Z,101533.75
2022-10-04T22:20:23.489Z,101536.38
2022-10-04T22:22:50.166Z,101531.94
2022-10-04T22:25:21.737Z,101530.13
2022-10-04T22:27:48.863Z,101526.72
2022-10-04T22:30:27.917Z,101519.69
2022-10-04T22:32:59.057Z,101533.38
2022-10-04T22:35:28.669Z,101525.56
2022-10-04T22:37:55.481Z,101521.31
2022-10-04T22:40:24.622Z,101516.91
2022-10-04T22:43:04.941Z,101513.31
2022-10-04T22:45:33.563Z,101516.72
2022-10-04T22:48:06.493Z,101512.31
2022-10-04T22:50:36.230Z,101516.53
2022-10-04T22:53:22.756Z,101508.72
2022-10-04T22:55:50.571Z,101504.31
2022-10-04T22:58:17.493Z,101503.31
2022-10-04T23:00:45.047Z,101498.88
2022-10-04T23:03:34.530Z,101493.66
2022-10-04T23:06:02.502Z,101492.06
2022-10-04T23:08:30.032Z,101493.03
2022-10-04T23:10:58.588Z,101493.03
2022-10-04T23:13:26.645Z,101494.03
2022-10-04T23:15:58.945Z,101490.41
2022-10-04T23:18:26.954Z,101499.06
2022-10-04T23:21:02.453Z,101491.25
2022-10-04T23:23:30.862Z,101488.63
2022-10-04T23:25:58.445Z,101487.81
2022-10-04T23:28:25.064Z,101486.00
2022-10-04T23:31:06.072Z,101484.22
2022-10-04T23:33:32.813Z,101476.00
2022-10-04T23:35:59.357Z,101479.44
2022-10-04T23:38:26.526Z,101468.00
2022-10-04T23:40:53.133Z,101460.16
2022-10-04T23:43:25.652Z,101455.09
2022-10-04T23:45:57.825Z,101467.19
2022-10-04T23:48:27.092Z,101454.31
2022-10-04T23:50:56.313Z,101456.94
2022-10-04T23:53:28.286Z,101455.09
2022-10-04T23:55:55.908Z,101463.75
2022-10-04T23:58:39.308Z,101462.16
